Time;durP1;ratioP1;P1;durP2;ratioP2;P2;SDS_P1;SDS_P2;PMS_P1;PMS_P2;Temp;Humidity;BMP_temperature;BMP_pressure;BME280_temperature;BME280_humidity;BME280_pressure;Samples;Min_cycle;Max_cycle;Signal;HPM_P1;HPM_P2
2022/02/20 00:01:51;;;;;;;5.60;1.38;;;6.70;99.90;;;;;;5069796;28;20020;-42
2022/02/20 00:04:17;;;;;;;9.88;1.67;;;6.60;99.90;;;;;;5076157;28;20039;-43
2022/02/20 00:06:42;;;;;;;11.93;1.70;;;6.60;99.90;;;;;;5072351;28;20041;-43
2022/02/20 00:09:08;;;;;;;6.10;1.33;;;6.70;99.90;;;;;;5074630;28;20035;-43
2022/02/20 00:11:33;;;;;;;7.38;1.70;;;6.70;99.90;;;;;;5074621;28;20066;-44
2022/02/20 00:13:59;;;;;;;5.70;1.70;;;6.70;99.90;;;;;;5071537;28;20040;-43
2022/02/20 00:16:24;;;;;;;6.22;1.17;;;6.70;99.90;;;;;;5076692;28;20462;-43
2022/02/20 00:18:50;;;;;;;6.70;1.38;;;6.70;99.90;;;;;;5069161;28;20032;-43
2022/02/20 00:21:16;;;;;;;3.28;1.08;;;6.60;99.90;;;;;;5078924;28;20035;-43
2022/02/20 00:23:42;;;;;;;7.63;1.45;;;6.60;99.90;;;;;;5069500;28;20024;-43
2022/02/20 00:26:08;;;;;;;4.22;1.20;;;6.50;99.90;;;;;;5078026;28;20106;-43
2022/02/20 00:28:33;;;;;;;5.32;1.40;;;6.40;99.90;;;;;;5067103;28;20550;-43
2022/02/20 00:30:59;;;;;;;3.00;1.30;;;6.40;99.90;;;;;;5080616;28;20036;-43
2022/02/20 00:33:24;;;;;;;6.45;1.60;;;6.30;99.90;;;;;;5066416;28;20123;-42
2022/02/20 00:35:50;;;;;;;5.47;1.35;;;6.20;99.90;;;;;;5080694;28;20039;-44
2022/02/20 00:38:16;;;;;;;6.43;1.85;;;6.20;99.90;;;;;;5067017;28;20067;-44
2022/02/20 00:40:41;;;;;;;6.85;1.38;;;6.10;99.90;;;;;;5077948;28;20046;-44
2022/02/20 00:43:07;;;;;;;5.95;1.60;;;6.00;99.90;;;;;;5070030;28;20024;-44
2022/02/20 00:45:33;;;;;;;2.70;1.00;;;6.00;99.90;;;;;;5074476;28;20420;-42
2022/02/20 00:47:58;;;;;;;7.25;1.08;;;6.00;99.90;;;;;;5072522;28;20051;-42
2022/02/20 00:50:26;;;;;;;3.17;0.90;;;5.90;99.90;;;;;;5073698;28;20021;-43
2022/02/20 00:52:52;;;;;;;6.15;1.25;;;5.90;99.90;;;;;;5079464;28;20086;-44
2022/02/20 00:55:18;;;;;;;5.40;1.23;;;5.90;99.90;;;;;;5083937;28;20077;-42
2022/02/20 00:57:43;;;;;;;9.27;1.40;;;5.90;99.90;;;;;;5078309;28;20020;-44
2022/02/20 01:00:11;;;;;;;4.25;1.27;;;5.90;99.90;;;;;;5085234;28;20025;-42
2022/02/20 01:02:38;;;;;;;5.70;1.20;;;5.90;99.90;;;;;;5076081;28;20020;-43
2022/02/20 01:05:04;;;;;;;4.32;0.90;;;5.90;99.90;;;;;;5086235;28;20028;-43
2022/02/20 01:07:30;;;;;;;7.25;1.40;;;5.90;99.90;;;;;;5074496;28;20028;-40
2022/02/20 01:09:56;;;;;;;5.28;1.15;;;5.90;99.90;;;;;;5087371;28;20446;-44
2022/02/20 01:12:21;;;;;;;5.28;1.13;;;6.00;99.90;;;;;;5073711;28;20024;-43
2022/02/20 01:14:47;;;;;;;6.07;1.30;;;5.90;99.90;;;;;;5086613;28;20443;-43
2022/02/20 01:17:14;;;;;;;4.07;1.20;;;5.90;99.90;;;;;;5073877;28;20029;-43
2022/02/20 01:19:40;;;;;;;6.68;1.25;;;6.00;99.90;;;;;;5087729;28;20101;-43
2022/02/20 01:22:06;;;;;;;2.85;0.98;;;5.90;99.90;;;;;;5076046;28;20020;-44
2022/02/20 01:24:31;;;;;;;3.60;1.20;;;5.90;99.90;;;;;;5085189;28;20016;-43
2022/02/20 01:26:57;;;;;;;6.25;1.00;;;6.00;99.90;;;;;;5078974;28;20017;-43
2022/02/20 01:29:22;;;;;;;8.63;1.45;;;6.00;99.90;;;;;;5081062;28;20059;-43
2022/02/20 01:31:49;;;;;;;3.15;1.02;;;6.00;99.90;;;;;;5081814;28;20062;-44
2022/02/20 01:34:15;;;;;;;3.53;1.10;;;6.00;99.90;;;;;;5079619;28;20102;-43
2022/02/20 01:36:40;;;;;;;3.70;1.20;;;6.00;99.90;;;;;;5082496;28;20471;-42
2022/02/20 01:39:06;;;;;;;4.35;1.38;;;6.00;99.90;;;;;;5077376;28;20028;-42
2022/02/20 01:41:31;;;;;;;5.70;1.27;;;6.00;99.90;;;;;;5084944;28;20558;-43
2022/02/20 01:43:57;;;;;;;5.40;1.30;;;6.00;99.90;;;;;;5074453;28;20024;-42
2022/02/20 01:46:22;;;;;;;3.45;1.50;;;6.00;99.90;;;;;;5084721;28;20048;-41
2022/02/20 01:48:48;;;;;;;6.13;1.33;;;6.00;99.90;;;;;;5074909;28;20375;-43
2022/02/20 01:51:14;;;;;;;4.18;0.77;;;6.00;99.90;;;;;;5086142;28;20790;-44
2022/02/20 01:53:40;;;;;;;4.60;1.30;;;6.00;99.90;;;;;;5073393;28;20060;-43
2022/02/20 01:56:06;;;;;;;5.07;1.05;;;6.00;99.90;;;;;;5085811;28;20695;-44
2022/02/20 01:58:32;;;;;;;5.97;1.23;;;6.00;99.90;;;;;;5073577;28;20110;-43
2022/02/20 02:01:00;;;;;;;4.60;0.85;;;6.00;99.90;;;;;;5066533;28;20016;-44
2022/02/20 02:03:25;;;;;;;3.65;0.90;;;6.00;99.90;;;;;;5075011;28;20051;-43
2022/02/20 02:05:51;;;;;;;3.50;0.70;;;6.00;99.90;;;;;;5068298;28;20012;-43
2022/02/20 02:08:18;;;;;;;3.45;0.80;;;6.00;99.90;;;;;;5073154;28;20016;-43
2022/02/20 02:10:45;;;;;;;4.88;0.75;;;6.00;99.90;;;;;;5070375;28;20024;-42
2022/02/20 02:13:11;;;;;;;2.72;0.60;;;6.00;99.90;;;;;;5071245;28;20132;-43
2022/02/20 02:15:50;;;;;;;4.15;0.80;;;6.00;99.90;;;;;;5072889;28;20024;-42
2022/02/20 02:18:17;;;;;;;2.88;0.63;;;6.00;99.90;;;;;;5069015;28;20091;-43
2022/02/20 02:20:42;;;;;;;2.85;0.63;;;6.00;99.90;;;;;;5073777;28;20024;-43
2022/02/20 02:23:09;;;;;;;3.55;0.90;;;6.10;99.90;;;;;;5067890;28;20024;-43
2022/02/20 02:25:37;;;;;;;3.67;0.98;;;6.10;99.90;;;;;;5074821;28;20055;-42
2022/02/20 02:28:03;;;;;;;2.92;0.98;;;6.10;99.90;;;;;;5066788;28;20541;-43
2022/02/20 02:30:29;;;;;;;3.75;2.38;;;6.10;99.90;;;;;;5076711;28;20024;-43
2022/02/20 02:32:54;;;;;;;2.67;1.40;;;6.00;99.90;;;;;;5066028;28;20385;-42
2022/02/20 02:35:20;;;;;;;2.90;1.10;;;6.10;99.90;;;;;;5076464;28;20028;-43
2022/02/20 02:37:46;;;;;;;4.00;1.42;;;6.10;99.90;;;;;;5066067;28;20055;-43
2022/02/20 02:40:11;;;;;;;4.13;1.13;;;6.10;99.90;;;;;;5077244;28;20491;-44
2022/02/20 02:42:37;;;;;;;4.55;1.40;;;6.10;99.90;;;;;;5065199;28;20028;-43
2022/02/20 02:45:03;;;;;;;3.45;1.40;;;6.00;99.90;;;;;;5077036;28;20028;-43
2022/02/20 02:47:30;;;;;;;2.55;1.20;;;6.10;99.90;;;;;;5064862;28;20841;-44
2022/02/20 02:49:56;;;;;;;4.10;0.98;;;6.10;99.90;;;;;;5075228;28;20431;-43
2022/02/20 02:52:21;;;;;;;1.92;1.00;;;6.10;99.90;;;;;;5066984;28;20049;-42
2022/02/20 02:54:47;;;;;;;2.85;1.17;;;6.10;99.90;;;;;;5072610;28;20039;-45
2022/02/20 02:57:13;;;;;;;1.90;0.90;;;6.10;99.90;;;;;;5070921;28;20099;-44
2022/02/20 02:59:38;;;;;;;1.65;0.68;;;6.10;99.90;;;;;;5069783;28;20107;-43
2022/02/20 03:02:04;;;;;;;2.42;0.95;;;6.10;99.90;;;;;;5073491;28;20384;-43
2022/02/20 03:04:31;;;;;;;3.38;1.20;;;6.10;99.90;;;;;;5066782;28;20064;-43
2022/02/20 03:06:57;;;;;;;2.65;1.20;;;6.10;99.90;;;;;;5075497;28;20029;-43
2022/02/20 03:09:22;;;;;;;2.67;0.90;;;6.20;99.90;;;;;;5066087;28;20020;-42
2022/02/20 03:11:48;;;;;;;4.03;0.88;;;6.10;99.90;;;;;;5076888;28;20012;-44
2022/02/20 03:14:13;;;;;;;4.15;0.82;;;6.10;99.90;;;;;;5064723;28;20032;-43
2022/02/20 03:16:39;;;;;;;3.33;1.00;;;6.10;99.90;;;;;;5077497;28;20077;-43
2022/02/20 03:19:05;;;;;;;2.42;0.75;;;6.10;99.90;;;;;;5065493;28;20171;-43
2022/02/20 03:21:30;;;;;;;2.88;0.80;;;6.00;99.90;;;;;;5076489;28;20020;-42
2022/02/20 03:23:56;;;;;;;3.25;0.90;;;6.10;99.90;;;;;;5065620;28;20025;-44
2022/02/20 03:26:22;;;;;;;4.10;0.75;;;6.00;99.90;;;;;;5076715;28;20157;-44
2022/02/20 03:28:47;;;;;;;4.22;1.02;;;6.10;99.90;;;;;;5065217;28;20055;-43
2022/02/20 03:31:13;;;;;;;4.18;0.90;;;6.10;99.90;;;;;;5073924;28;20040;-43
2022/02/20 03:33:38;;;;;;;4.03;0.77;;;6.10;99.90;;;;;;5068197;28;20033;-42
2022/02/20 03:36:04;;;;;;;1.90;0.68;;;6.10;99.90;;;;;;5070963;28;20020;-44
2022/02/20 03:38:30;;;;;;;1.73;0.60;;;6.10;99.90;;;;;;5070627;28;20036;-44
2022/02/20 03:40:56;;;;;;;1.98;0.55;;;6.10;99.90;;;;;;5068905;28;20482;-42
2022/02/20 03:43:21;;;;;;;3.75;0.50;;;6.10;99.90;;;;;;5072800;28;20032;-43
2022/02/20 03:45:47;;;;;;;3.95;0.68;;;6.10;99.90;;;;;;5066516;28;20078;-44
2022/02/20 03:48:12;;;;;;;1.13;0.52;;;6.10;99.90;;;;;;5075480;28;20060;-43
2022/02/20 03:50:38;;;;;;;3.00;0.40;;;6.10;99.90;;;;;;5066807;28;20112;-42
2022/02/20 03:53:03;;;;;;;4.15;0.80;;;6.10;99.90;;;;;;5075867;28;20160;-43
2022/02/20 03:55:29;;;;;;;3.85;0.60;;;6.10;99.90;;;;;;5064065;28;20119;-43
2022/02/20 03:57:54;;;;;;;3.75;0.85;;;6.10;99.90;;;;;;5077722;28;20119;-43
2022/02/20 04:00:23;;;;;;;2.25;0.60;;;6.00;99.90;;;;;;5065890;28;20056;-43
2022/02/20 04:02:48;;;;;;;3.63;0.82;;;6.10;99.90;;;;;;5080908;28;20058;-43
2022/02/20 04:05:16;;;;;;;3.75;0.80;;;6.10;99.90;;;;;;5068076;28;20918;-43
2022/02/20 04:07:42;;;;;;;2.25;0.75;;;6.10;99.90;;;;;;5079599;28;20494;-42
2022/02/20 04:10:11;;;;;;;0.85;0.50;;;6.10;99.90;;;;;;5068945;28;20039;-43
2022/02/20 04:12:37;;;;;;;3.17;0.73;;;6.10;99.90;;;;;;5076775;28;20043;-43
2022/02/20 04:15:06;;;;;;;1.98;0.80;;;6.10;99.90;;;;;;5071820;28;20476;-43
2022/02/20 04:17:41;;;;;;;1.40;0.73;;;6.10;99.90;;;;;;5074228;28;20692;-43
2022/02/20 04:20:08;;;;;;;2.90;0.90;;;6.10;99.90;;;;;;5073233;28;20349;-42
2022/02/20 04:22:34;;;;;;;4.82;0.90;;;6.10;99.90;;;;;;5073345;28;20399;-43
2022/02/20 04:24:59;;;;;;;1.60;1.00;;;6.10;99.90;;;;;;5074546;28;20024;-43
2022/02/20 04:27:25;;;;;;;5.45;1.13;;;6.10;99.90;;;;;;5070787;28;20116;-42
2022/02/20 04:29:50;;;;;;;4.72;1.00;;;6.10;99.90;;;;;;5078116;28;20031;-45
2022/02/20 04:32:16;;;;;;;2.13;0.85;;;6.00;99.90;;;;;;5067852;28;20051;-43
2022/02/20 04:34:41;;;;;;;2.33;0.95;;;6.00;99.90;;;;;;5078967;28;20052;-43
2022/02/20 04:37:07;;;;;;;2.15;0.80;;;6.00;99.90;;;;;;5069206;28;20535;-43
2022/02/20 04:39:32;;;;;;;4.25;0.88;;;6.00;99.90;;;;;;5078385;28;20547;-44
2022/02/20 04:41:58;;;;;;;3.95;1.10;;;6.00;99.90;;;;;;5068061;28;20082;-42
2022/02/20 04:44:24;;;;;;;3.97;1.27;;;6.00;99.90;;;;;;5079862;28;20021;-42
2022/02/20 04:46:50;;;;;;;5.32;1.00;;;6.00;99.90;;;;;;5067284;28;20032;-43
2022/02/20 04:49:16;;;;;;;3.92;1.17;;;6.00;99.90;;;;;;5076957;28;20028;-43
2022/02/20 04:51:41;;;;;;;2.40;1.30;;;6.00;99.90;;;;;;5066856;28;20463;-43
2022/02/20 04:54:07;;;;;;;2.72;1.00;;;6.00;99.90;;;;;;5077454;28;20032;-43
2022/02/20 04:56:32;;;;;;;2.00;1.00;;;6.00;99.90;;;;;;5069885;28;20033;-43
2022/02/20 04:58:58;;;;;;;3.58;1.35;;;6.00;99.90;;;;;;5074003;28;20055;-43
2022/02/20 05:01:24;;;;;;;4.72;1.48;;;6.00;99.90;;;;;;5071875;28;20025;-43
2022/02/20 05:03:51;;;;;;;2.47;1.30;;;6.00;99.90;;;;;;5072169;28;20039;-43
2022/02/20 05:06:17;;;;;;;5.45;1.48;;;6.10;99.90;;;;;;5073599;28;20056;-44
2022/02/20 05:08:42;;;;;;;3.95;1.67;;;6.10;99.90;;;;;;5069843;28;20055;-43
2022/02/20 05:11:08;;;;;;;3.10;1.52;;;6.10;99.90;;;;;;5077031;28;20064;-43
2022/02/20 05:13:33;;;;;;;3.88;1.95;;;6.10;99.90;;;;;;5067391;28;20050;-43
2022/02/20 05:15:59;;;;;;;3.70;1.80;;;6.10;99.90;;;;;;5078809;28;20100;-43
2022/02/20 05:18:24;;;;;;;10.15;1.90;;;6.10;99.90;;;;;;5067451;28;20391;-44
2022/02/20 05:20:54;;;;;;;3.80;1.80;;;6.00;99.90;;;;;;5078238;28;20813;-43
2022/02/20 05:23:21;;;;;;;3.60;2.00;;;6.00;99.90;;;;;;5066253;28;20033;-43
2022/02/20 05:25:47;;;;;;;5.05;2.50;;;6.00;99.90;;;;;;5079593;28;20028;-42
2022/02/20 05:28:12;;;;;;;5.28;2.70;;;6.00;99.90;;;;;;5066560;28;20490;-43
2022/02/20 05:30:38;;;;;;;5.75;2.47;;;6.00;99.90;;;;;;5078818;28;20105;-43
2022/02/20 05:33:03;;;;;;;6.13;3.15;;;6.00;99.90;;;;;;5066576;28;20056;-43
2022/02/20 05:35:29;;;;;;;6.18;3.30;;;5.90;99.90;;;;;;5075168;28;20513;-42
2022/02/20 05:37:54;;;;;;;6.05;3.53;;;6.00;99.90;;;;;;5069692;28;20028;-42
2022/02/20 05:40:22;;;;;;;5.65;4.38;;;5.90;99.90;;;;;;5073279;28;20102;-44
2022/02/20 05:42:48;;;;;;;5.78;4.43;;;5.90;99.90;;;;;;5071138;28;20036;-44
2022/02/20 05:45:13;;;;;;;6.93;3.97;;;5.80;99.90;;;;;;5071453;28;20047;-42
2022/02/20 05:47:39;;;;;;;8.38;4.35;;;5.80;99.90;;;;;;5073841;28;20036;-42
2022/02/20 05:50:07;;;;;;;12.18;5.00;;;5.80;99.90;;;;;;5072680;28;20129;-42
2022/02/20 05:52:33;;;;;;;8.63;4.05;;;5.80;99.90;;;;;;5076591;28;20410;-43
2022/02/20 05:54:58;;;;;;;6.13;5.18;;;5.80;99.90;;;;;;5084463;28;20020;-43
2022/02/20 05:57:24;;;;;;;11.57;5.80;;;5.80;99.90;;;;;;5074618;28;20031;-43
2022/02/20 05:59:50;;;;;;;11.52;5.53;;;5.80;99.90;;;;;;5085614;28;20024;-43
2022/02/20 06:02:16;;;;;;;8.55;6.03;;;5.80;99.90;;;;;;5074157;28;20461;-43
2022/02/20 06:04:41;;;;;;;11.15;6.45;;;5.80;99.90;;;;;;5086995;28;20416;-44
2022/02/20 06:07:07;;;;;;;8.30;5.70;;;5.70;99.90;;;;;;5073795;28;20103;-43
2022/02/20 06:09:33;;;;;;;7.70;5.18;;;5.70;99.90;;;;;;5085495;28;20047;-43
2022/02/20 06:11:58;;;;;;;6.25;4.82;;;5.80;99.90;;;;;;5073977;28;20800;-43
2022/02/20 06:14:24;;;;;;;10.68;4.53;;;5.80;99.90;;;;;;5085784;28;20036;-43
2022/02/20 06:16:49;;;;;;;9.90;5.22;;;5.80;99.90;;;;;;5075989;28;20119;-43
2022/02/20 06:19:15;;;;;;;13.48;5.70;;;5.80;99.90;;;;;;5083549;28;20031;-43
2022/02/20 06:21:40;;;;;;;9.75;4.90;;;5.80;99.90;;;;;;5078971;28;20467;-44
2022/02/20 06:24:06;;;;;;;9.85;4.72;;;5.80;99.90;;;;;;5079542;28;20814;-43
2022/02/20 06:26:32;;;;;;;12.02;5.03;;;5.90;99.90;;;;;;5081306;28;20027;-42
2022/02/20 06:28:58;;;;;;;12.00;4.72;;;5.90;99.90;;;;;;5077845;28;20028;-43
2022/02/20 06:31:23;;;;;;;8.90;4.30;;;6.00;99.90;;;;;;5083067;28;20452;-44
2022/02/20 06:33:51;;;;;;;9.27;4.35;;;6.00;99.90;;;;;;5075533;28;20036;-43
2022/02/20 06:36:17;;;;;;;10.60;5.32;;;6.00;99.90;;;;;;5083792;28;20017;-43
2022/02/20 06:38:43;;;;;;;12.48;5.57;;;6.00;99.90;;;;;;5074352;28;20020;-43
2022/02/20 06:41:10;;;;;;;10.30;5.45;;;6.00;99.90;;;;;;5085182;28;20045;-44
2022/02/20 06:43:37;;;;;;;8.63;4.35;;;6.10;99.90;;;;;;5074323;28;20016;-43
2022/02/20 06:46:03;;;;;;;13.27;5.63;;;6.10;99.90;;;;;;5085346;28;20111;-44
2022/02/20 06:48:28;;;;;;;7.75;4.03;;;6.10;99.90;;;;;;5072340;28;20115;-43
2022/02/20 06:50:54;;;;;;;7.15;3.80;;;6.20;99.90;;;;;;5086528;28;20073;-44
2022/02/20 06:53:20;;;;;;;9.75;3.78;;;6.20;99.90;;;;;;5071862;28;20618;-43
2022/02/20 06:55:45;;;;;;;11.35;4.28;;;6.20;99.90;;;;;;5085292;28;20125;-43
2022/02/20 06:58:11;;;;;;;8.93;4.05;;;6.20;99.90;;;;;;5074820;28;20028;-43
2022/02/20 07:00:36;;;;;;;9.77;4.18;;;6.30;99.90;;;;;;5082558;28;20074;-43
2022/02/20 07:03:02;;;;;;;8.98;4.00;;;6.40;99.90;;;;;;5078932;28;20025;-43
2022/02/20 07:05:27;;;;;;;8.00;3.83;;;6.40;99.90;;;;;;5078832;28;20020;-45
2022/02/20 07:07:53;;;;;;;9.43;3.75;;;6.40;99.90;;;;;;5081772;28;20071;-44
2022/02/20 07:10:19;;;;;;;9.95;3.65;;;6.40;99.90;;;;;;5076829;28;20035;-43
2022/02/20 07:12:44;;;;;;;10.48;3.70;;;6.50;99.90;;;;;;5083305;28;20521;-43
2022/02/20 07:15:10;;;;;;;9.82;3.75;;;6.50;99.90;;;;;;5074595;28;20716;-43
2022/02/20 07:17:35;;;;;;;11.60;3.80;;;6.60;99.90;;;;;;5083909;28;20055;-43
2022/02/20 07:20:04;;;;;;;7.40;3.20;;;6.60;99.90;;;;;;5073949;28;20020;-43
2022/02/20 07:22:31;;;;;;;9.93;3.33;;;6.70;99.90;;;;;;5084532;28;20028;-43
2022/02/20 07:24:57;;;;;;;9.65;3.28;;;6.70;99.90;;;;;;5073205;28;20135;-44
2022/02/20 07:27:23;;;;;;;12.38;4.57;;;6.80;99.90;;;;;;5084715;28;20875;-43
2022/02/20 07:29:49;;;;;;;11.68;2.90;;;6.90;99.90;;;;;;5072720;28;20021;-44
2022/02/20 07:32:14;;;;;;;11.75;3.10;;;6.90;99.90;;;;;;5085318;28;20403;-43
2022/02/20 07:34:40;;;;;;;8.20;3.00;;;6.90;99.90;;;;;;5073731;28;20031;-43
2022/02/20 07:37:05;;;;;;;7.03;2.63;;;7.00;99.90;;;;;;5088443;28;20550;-44
2022/02/20 07:39:31;;;;;;;7.25;2.95;;;7.00;99.90;;;;;;5079934;28;20032;-43
2022/02/20 07:41:56;;;;;;;13.50;3.35;;;7.10;99.90;;;;;;5085314;28;20103;-44
2022/02/20 07:44:23;;;;;;;8.65;2.60;;;7.10;99.90;;;;;;5081944;28;20448;-43
2022/02/20 07:46:48;;;;;;;7.50;2.47;;;7.20;99.90;;;;;;5083729;28;20028;-44
2022/02/20 07:49:14;;;;;;;6.88;2.63;;;7.20;99.90;;;;;;5083783;28;20016;-44
2022/02/20 07:51:40;;;;;;;7.30;2.33;;;7.30;99.90;;;;;;5079951;28;20036;-43
2022/02/20 07:54:05;;;;;;;8.15;2.60;;;7.40;99.90;;;;;;5087753;28;20064;-43
2022/02/20 07:56:31;;;;;;;7.60;2.17;;;7.40;99.90;;;;;;5075936;28;20020;-43
2022/02/20 07:58:56;;;;;;;10.07;2.47;;;7.40;99.90;;;;;;5087409;28;20027;-43
2022/02/20 08:01:22;;;;;;;5.82;2.33;;;7.50;99.90;;;;;;5076519;28;20016;-44
2022/02/20 08:03:49;;;;;;;8.50;2.58;;;7.60;99.90;;;;;;5089087;28;20016;-44
2022/02/20 08:06:14;;;;;;;9.07;2.90;;;7.60;99.90;;;;;;5080607;28;20024;-44
2022/02/20 08:08:40;;;;;;;7.80;3.10;;;7.70;99.90;;;;;;5067858;28;20745;-43
2022/02/20 08:11:06;;;;;;;9.85;2.88;;;7.80;99.90;;;;;;5081386;28;20080;-44
2022/02/20 08:13:31;;;;;;;6.18;3.25;;;7.80;99.90;;;;;;5067676;28;20068;-44
2022/02/20 08:15:58;;;;;;;5.20;2.58;;;7.90;99.90;;;;;;5079224;28;20030;-44
2022/02/20 08:18:24;;;;;;;5.40;3.30;;;8.00;99.90;;;;;;5069432;28;20040;-44
2022/02/20 08:20:49;;;;;;;5.60;2.67;;;8.00;99.90;;;;;;5076944;28;20032;-44
2022/02/20 08:23:17;;;;;;;6.28;3.22;;;8.10;99.90;;;;;;5071144;28;20028;-43
2022/02/20 08:25:44;;;;;;;4.40;3.00;;;8.20;99.90;;;;;;5074112;28;20020;-43
2022/02/20 08:28:09;;;;;;;4.53;3.03;;;8.20;99.90;;;;;;5074186;28;20032;-43
2022/02/20 08:30:35;;;;;;;4.00;2.90;;;8.30;99.90;;;;;;5070655;28;20016;-44
2022/02/20 08:33:02;;;;;;;5.50;2.97;;;8.30;99.90;;;;;;5077318;28;20025;-43
2022/02/20 08:35:28;;;;;;;4.72;3.30;;;8.40;99.90;;;;;;5068839;28;20397;-44
2022/02/20 08:37:53;;;;;;;4.50;3.13;;;8.50;99.90;;;;;;5078710;28;20047;-42
2022/02/20 08:40:19;;;;;;;3.45;3.05;;;8.50;99.90;;;;;;5069120;28;20025;-43
2022/02/20 08:42:47;;;;;;;4.25;3.25;;;8.50;99.90;;;;;;5079539;28;20055;-43
2022/02/20 08:45:13;;;;;;;6.95;3.38;;;8.60;99.90;;;;;;5067463;28;20549;-43
2022/02/20 08:47:39;;;;;;;4.95;3.55;;;8.60;99.90;;;;;;5075083;28;20019;-44
2022/02/20 08:50:06;;;;;;;3.80;2.63;;;8.70;99.90;;;;;;5087951;28;20455;-43
2022/02/20 08:52:31;;;;;;;7.63;3.65;;;8.70;99.90;;;;;;5073689;28;20360;-43
2022/02/20 08:54:57;;;;;;;5.78;3.50;;;8.70;99.90;;;;;;5087745;28;20498;-44
2022/02/20 08:57:23;;;;;;;5.75;3.53;;;8.80;99.90;;;;;;5076053;28;20045;-44
2022/02/20 08:59:49;;;;;;;7.45;3.97;;;8.80;99.90;;;;;;5086117;28;20622;-43
2022/02/20 09:02:14;;;;;;;5.45;3.50;;;8.80;99.90;;;;;;5078481;28;20028;-43
2022/02/20 09:04:40;;;;;;;9.55;4.38;;;8.90;99.90;;;;;;5083754;28;20024;-44
2022/02/20 09:07:07;;;;;;;9.85;4.07;;;9.00;99.90;;;;;;5081188;28;20025;-43
2022/02/20 09:09:33;;;;;;;10.52;3.90;;;9.00;99.90;;;;;;5080772;28;20024;-43
2022/02/20 09:11:59;;;;;;;10.65;4.75;;;9.10;99.90;;;;;;5082777;28;20854;-43
2022/02/20 09:14:24;;;;;;;14.00;4.60;;;9.10;99.90;;;;;;5078278;28;20066;-44
2022/02/20 09:16:50;;;;;;;12.60;4.90;;;9.20;99.90;;;;;;5086084;28;20127;-43
2022/02/20 09:19:16;;;;;;;12.38;5.43;;;9.20;99.90;;;;;;5074768;28;20572;-43
2022/02/20 09:21:41;;;;;;;14.32;5.75;;;9.30;99.90;;;;;;5086245;28;20476;-44
2022/02/20 09:24:07;;;;;;;11.68;5.50;;;9.30;99.90;;;;;;5076035;28;20047;-44
2022/02/20 09:26:33;;;;;;;10.38;5.00;;;9.30;99.90;;;;;;5085785;28;20516;-43
2022/02/20 09:28:59;;;;;;;12.80;6.18;;;9.40;99.90;;;;;;5074716;28;20612;-43
2022/02/20 09:31:25;;;;;;;15.68;6.43;;;9.40;99.90;;;;;;5086881;28;20066;-43
2022/02/20 09:33:50;;;;;;;16.52;7.20;;;9.50;99.90;;;;;;5073427;28;20037;-43
2022/02/20 09:36:16;;;;;;;15.77;6.97;;;9.50;99.90;;;;;;5086418;28;20024;-43
2022/02/20 09:38:42;;;;;;;16.38;6.18;;;9.50;99.90;;;;;;5075855;28;20456;-42
2022/02/20 09:41:09;;;;;;;16.77;6.55;;;9.60;99.90;;;;;;5084691;28;20054;-43
2022/02/20 09:43:37;;;;;;;17.67;8.18;;;9.60;99.90;;;;;;5077977;28;20028;-43
2022/02/20 09:46:04;;;;;;;19.60;7.60;;;9.70;99.90;;;;;;5083775;28;20054;-43
2022/02/20 09:48:30;;;;;;;18.15;7.43;;;9.70;99.90;;;;;;5079270;28;20024;-43
2022/02/20 09:50:56;;;;;;;16.27;7.00;;;9.70;99.90;;;;;;5082999;28;20036;-44
2022/02/20 09:53:22;;;;;;;20.10;7.38;;;9.80;99.90;;;;;;5081903;28;20040;-43
2022/02/20 09:55:49;;;;;;;16.63;6.15;;;9.80;99.90;;;;;;5077542;28;20039;-41
2022/02/20 09:58:16;;;;;;;25.00;8.15;;;9.90;99.90;;;;;;5084063;28;20028;-43
2022/02/20 10:00:57;;;;;;;24.98;7.28;;;10.00;99.90;;;;;;5075526;28;20024;-43
2022/02/20 10:03:36;;;;;;;17.35;6.72;;;10.00;99.90;;;;;;5084582;28;20020;-43
2022/02/20 10:06:04;;;;;;;21.60;8.00;;;10.10;99.90;;;;;;5076750;28;20024;-43
2022/02/20 10:08:39;;;;;;;19.85;6.45;;;10.00;99.90;;;;;;5084001;28;20093;-43
2022/02/20 10:11:18;;;;;;;27.95;7.38;;;10.10;99.90;;;;;;5076035;28;20036;-44
2022/02/20 10:13:49;;;;;;;31.20;7.43;;;10.10;99.90;;;;;;5084898;28;20058;-44
2022/02/20 10:16:26;;;;;;;19.45;6.15;;;10.10;99.90;;;;;;5074188;28;20020;-44
2022/02/20 10:18:55;;;;;;;25.55;7.10;;;10.20;99.90;;;;;;5084962;28;20040;-43
2022/02/20 10:21:29;;;;;;;26.80;7.13;;;10.20;99.90;;;;;;5074494;28;20028;-43
2022/02/20 10:24:03;;;;;;;25.83;6.93;;;10.20;99.90;;;;;;5084793;28;20028;-43
2022/02/20 10:26:32;;;;;;;27.00;6.90;;;10.20;99.90;;;;;;5073967;28;20028;-44
2022/02/20 10:29:05;;;;;;;18.73;5.95;;;10.20;99.90;;;;;;5084651;28;20198;-43
2022/02/20 10:31:49;;;;;;;;;;;10.30;99.90;;;;;;5075107;28;20023;-44
2022/02/20 10:34:16;;;;;;;;;;;10.30;99.90;;;;;;5084841;28;20016;-44
2022/02/20 10:36:52;;;;;;;24.52;5.85;;;10.20;99.90;;;;;;5074034;28;19908;-43
2022/02/20 10:39:20;;;;;;;27.33;6.45;;;10.20;99.90;;;;;;5083856;28;20111;-43
2022/02/20 10:41:46;;;;;;;26.15;6.40;;;10.30;99.90;;;;;;5075061;28;20057;-43
2022/02/20 10:44:12;;;;;;;32.38;7.03;;;10.30;99.90;;;;;;5084819;28;20024;-43
2022/02/20 10:46:39;;;;;;;27.67;7.25;;;10.30;99.90;;;;;;5073460;28;20043;-42
2022/02/20 10:49:04;;;;;;;31.83;7.47;;;10.30;99.90;;;;;;5085538;28;20129;-43
2022/02/20 10:51:41;;;;;;;24.65;6.40;;;10.40;99.90;;;;;;5076633;28;20046;-43
2022/02/20 10:54:07;;;;;;;27.35;6.28;;;10.40;99.90;;;;;;5065908;28;20127;-43
2022/02/20 10:56:40;;;;;;;26.45;6.13;;;10.40;99.90;;;;;;5077830;28;20027;-43
2022/02/20 10:59:06;;;;;;;28.58;6.63;;;10.40;99.90;;;;;;5065561;28;20059;-42
2022/02/20 11:01:32;;;;;;;34.65;7.22;;;10.40;99.90;;;;;;5076586;28;20072;-43
2022/02/20 11:04:08;;;;;;;32.22;6.43;;;10.40;99.90;;;;;;5066653;28;20046;-44
2022/02/20 11:06:34;;;;;;;33.92;6.47;;;10.40;99.90;;;;;;5075126;28;20025;-45
2022/02/20 11:09:01;;;;;;;30.90;6.15;;;10.40;99.90;;;;;;5068654;28;20036;-43
2022/02/20 11:11:40;;;;;;;26.98;6.50;;;10.40;99.90;;;;;;5076301;28;20038;-43
2022/02/20 11:14:18;;;;;;;29.52;5.78;;;10.40;99.90;;;;;;5072517;28;20032;-42
2022/02/20 11:16:47;;;;;;;26.20;7.28;;;10.40;99.90;;;;;;5078040;28;20020;-43
2022/02/20 11:19:15;;;;;;;28.40;6.97;;;10.40;99.90;;;;;;5072160;28;20105;-43
2022/02/20 11:21:43;;;;;;;23.90;5.85;;;10.40;99.90;;;;;;5076228;28;20023;-45
2022/02/20 11:24:10;;;;;;;25.65;6.00;;;10.40;99.90;;;;;;5074642;28;20029;-42
2022/02/20 11:26:42;;;;;;;26.00;5.82;;;10.40;99.90;;;;;;5072878;28;20752;-43
2022/02/20 11:29:08;;;;;;;24.55;5.57;;;10.40;99.90;;;;;;5075814;28;20047;-43
2022/02/20 11:31:34;;;;;;;27.70;5.75;;;10.40;99.90;;;;;;5072189;28;20392;-43
2022/02/20 11:34:01;;;;;;;29.35;6.10;;;10.40;99.90;;;;;;5078408;28;20039;-44
2022/02/20 11:36:30;;;;;;;30.42;6.13;;;10.40;99.90;;;;;;5069916;28;20483;-43
2022/02/20 11:39:11;;;;;;;21.13;5.40;;;10.40;99.90;;;;;;5080853;28;20028;-44
2022/02/20 11:41:39;;;;;;;27.50;5.18;;;10.40;99.90;;;;;;5069727;28;20069;-43
2022/02/20 11:44:17;;;;;;;27.45;6.38;;;10.40;99.90;;;;;;5080181;28;20056;-42
2022/02/20 11:46:51;;;;;;;25.08;4.82;;;10.40;99.90;;;;;;5069361;28;20661;-42
2022/02/20 11:49:26;;;;;;;26.05;4.65;;;10.40;99.90;;;;;;5080346;28;20033;-44
2022/02/20 11:51:56;;;;;;;26.35;5.18;;;10.40;99.90;;;;;;5070007;28;20030;-42
2022/02/20 11:54:22;;;;;;;30.10;5.68;;;10.30;99.90;;;;;;5079165;28;20028;-43
2022/02/20 11:57:12;;;;;;;23.88;5.25;;;10.30;99.90;;;;;;5070518;28;20030;-44
2022/02/20 12:00:01;;;;;;;22.63;4.63;;;10.30;99.90;;;;;;5080034;28;20029;-42
2022/02/20 12:02:27;;;;;;;22.02;4.90;;;10.30;99.90;;;;;;5068699;28;20112;-43
2022/02/20 12:04:53;;;;;;;23.63;5.68;;;10.30;99.90;;;;;;5079636;28;20106;-43
2022/02/20 12:07:29;;;;;;;27.20;4.97;;;10.30;99.90;;;;;;5069705;28;20036;-43
2022/02/20 12:10:28;;;;;;;22.42;4.57;;;10.30;99.90;;;;;;5079401;28;20031;-42
2022/02/20 12:13:18;;;;;;;19.58;4.50;;;10.30;99.90;;;;;;5070808;28;20043;-44
2022/02/20 12:15:45;;;;;;;26.20;4.75;;;10.30;99.90;;;;;;5074377;28;20071;-44
2022/02/20 12:18:10;;;;;;;18.40;4.45;;;10.20;99.90;;;;;;5071273;28;20483;-44
2022/02/20 12:20:56;;;;;;;25.25;4.63;;;10.30;99.90;;;;;;5076267;28;20507;-43
2022/02/20 12:23:32;;;;;;;25.48;4.47;;;10.20;99.90;;;;;;5070592;28;20020;-42
2022/02/20 12:26:05;;;;;;;20.08;4.82;;;10.20;99.90;;;;;;5076255;28;20037;-44
2022/02/20 12:28:39;;;;;;;21.90;4.70;;;10.20;99.90;;;;;;5070690;28;20021;-43
2022/02/20 12:31:13;;;;;;;19.83;4.95;;;10.20;99.90;;;;;;5076381;28;20024;-43
2022/02/20 12:33:45;;;;;;;28.42;5.60;;;10.20;99.90;;;;;;5071354;28;20032;-43
2022/02/20 12:36:11;;;;;;;19.20;4.25;;;10.10;99.90;;;;;;5075969;28;20028;-43
2022/02/20 12:38:57;;;;;;;17.65;6.72;;;10.10;99.90;;;;;;5069126;28;20024;-43
2022/02/20 12:41:23;;;;;;;24.05;5.57;;;10.10;99.90;;;;;;5075675;28;20109;-43
2022/02/20 12:43:51;;;;;;;15.30;5.05;;;10.10;99.90;;;;;;5069352;28;20099;-42
2022/02/20 12:46:17;;;;;;;25.85;5.53;;;10.10;99.90;;;;;;5077572;28;20021;-43
2022/02/20 12:48:42;;;;;;;20.65;5.30;;;10.10;99.90;;;;;;5069348;28;20028;-44
2022/02/20 12:51:09;;;;;;;22.80;5.78;;;10.10;99.90;;;;;;5078141;28;20032;-44
2022/02/20 12:53:35;;;;;;;18.40;4.65;;;10.10;99.90;;;;;;5068081;28;20053;-44